Time;durP1;ratioP1;P1;durP2;ratioP2;P2;SDS_P1;SDS_P2;PMS_P1;PMS_P2;Temp;Humidity;BMP_temperature;BMP_pressure;BME280_temperature;BME280_humidity;BME280_pressure;Samples;Min_cycle;Max_cycle;Signal;HPM_P1;HPM_P2
2023/09/14 00:03:29;;;;;;;3.75;2.70;;;;;;;;;;10444061;28;20044;-83
2023/09/14 00:08:30;;;;;;;4.07;2.72;;;;;;;;;;10443759;28;20563;-83
2023/09/14 00:13:31;;;;;;;7.60;2.70;;;;;;;;;;10444129;28;20021;-83
2023/09/14 00:18:32;;;;;;;5.22;2.10;;;;;;;;;;10445681;28;20500;-83
2023/09/14 00:23:33;;;;;;;4.38;2.40;;;;;;;;;;10444435;28;20045;-84
2023/09/14 00:28:34;;;;;;;2.88;1.85;;;;;;;;;;10445228;28;20037;-84
2023/09/14 00:33:35;;;;;;;2.50;1.75;;;;;;;;;;10444224;28;20115;-83
2023/09/14 00:38:36;;;;;;;2.83;2.10;;;;;;;;;;10444038;28;20045;-83
2023/09/14 00:43:39;;;;;;;3.60;2.85;;;;;;;;;;10444065;28;20484;-83
2023/09/14 00:48:40;;;;;;;4.25;2.97;;;;;;;;;;10444156;28;20102;-83
2023/09/14 00:53:41;;;;;;;6.45;4.40;;;;;;;;;;10443659;28;20104;-83
2023/09/14 00:58:42;;;;;;;9.25;5.70;;;;;;;;;;10442945;28;20855;-84
2023/09/14 01:03:43;;;;;;;8.20;5.30;;;;;;;;;;10443021;28;20029;-84
2023/09/14 01:08:44;;;;;;;8.10;5.57;;;;;;;;;;10443861;28;20033;-84
2023/09/14 01:13:45;;;;;;;5.63;3.92;;;;;;;;;;10442552;28;20097;-84
2023/09/14 01:18:53;;;;;;;4.57;3.85;;;;;;;;;;10443140;28;20037;-84
2023/09/14 01:24:06;;;;;;;13.05;5.07;;;;;;;;;;10443032;28;20037;-84
2023/09/14 01:29:07;;;;;;;4.97;3.58;;;;;;;;;;10442620;28;20087;-84
2023/09/14 01:34:08;;;;;;;6.28;3.88;;;;;;;;;;10440388;28;20083;-83
2023/09/14 01:39:11;;;;;;;5.85;4.03;;;;;;;;;;10441610;28;20045;-84
2023/09/14 01:44:13;;;;;;;10.73;5.30;;;;;;;;;;10441641;28;20067;-83
2023/09/14 01:49:14;;;;;;;15.40;6.00;;;;;;;;;;10440835;28;20033;-84
2023/09/14 01:54:15;;;;;;;6.47;3.92;;;;;;;;;;10442536;28;20025;-84
2023/09/14 01:59:15;;;;;;;13.93;6.45;;;;;;;;;;10441297;28;20079;-84
2023/09/14 02:04:17;;;;;;;10.98;4.65;;;;;;;;;;10441977;28;20021;-83
2023/09/14 02:09:18;;;;;;;4.53;2.95;;;;;;;;;;10445167;28;20032;-84
2023/09/14 02:14:19;;;;;;;9.25;5.25;;;;;;;;;;10449832;28;20807;-83
2023/09/14 02:19:20;;;;;;;14.25;6.45;;;;;;;;;;10449165;28;20076;-83
2023/09/14 02:24:21;;;;;;;10.25;5.03;;;;;;;;;;10448825;28;20609;-84
2023/09/14 02:29:22;;;;;;;7.03;3.70;;;;;;;;;;10449710;28;20052;-85
2023/09/14 02:34:23;;;;;;;7.25;4.28;;;;;;;;;;10449489;28;20036;-83
2023/09/14 02:39:24;;;;;;;3.35;2.35;;;;;;;;;;10447773;28;20052;-84
2023/09/14 02:44:25;;;;;;;9.30;5.78;;;;;;;;;;10448675;28;20032;-83
2023/09/14 02:49:26;;;;;;;14.70;6.80;;;;;;;;;;10446327;28;20029;-84
2023/09/14 02:54:27;;;;;;;12.80;7.00;;;;;;;;;;10448189;28;20531;-84
2023/09/14 02:59:28;;;;;;;9.30;5.22;;;;;;;;;;10446915;28;20029;-83
2023/09/14 03:04:29;;;;;;;7.85;4.68;;;;;;;;;;10446530;28;20045;-83
2023/09/14 03:09:30;;;;;;;22.33;10.32;;;;;;;;;;10447142;28;20128;-84
2023/09/14 03:14:31;;;;;;;24.80;9.05;;;;;;;;;;10447168;28;20040;-83
2023/09/14 03:19:32;;;;;;;26.63;12.32;;;;;;;;;;10444063;28;20090;-84
2023/09/14 03:24:33;;;;;;;27.60;15.27;;;;;;;;;;10445952;28;20120;-84
2023/09/14 03:29:34;;;;;;;37.45;19.65;;;;;;;;;;10445455;28;20033;-83
2023/09/14 03:34:35;;;;;;;38.05;20.48;;;;;;;;;;10446495;28;20039;-86
2023/09/14 03:39:36;;;;;;;30.77;18.85;;;;;;;;;;10445605;28;20581;-84
2023/09/14 03:44:37;;;;;;;35.38;20.77;;;;;;;;;;10445460;28;20037;-82
2023/09/14 03:49:38;;;;;;;38.80;21.77;;;;;;;;;;10445624;28;20033;-86
2023/09/14 03:54:39;;;;;;;28.63;17.80;;;;;;;;;;10445077;28;20579;-80
2023/09/14 03:59:42;;;;;;;27.00;17.40;;;;;;;;;;10444818;28;20041;-81
2023/09/14 04:04:43;;;;;;;25.58;17.42;;;;;;;;;;10444673;28;20136;-80
2023/09/14 04:09:44;;;;;;;27.75;17.30;;;;;;;;;;10443373;28;20063;-84
2023/09/14 04:14:45;;;;;;;27.13;18.08;;;;;;;;;;10444226;28;20439;-83
2023/09/14 04:19:46;;;;;;;18.33;12.25;;;;;;;;;;10441891;28;20041;-83
2023/09/14 04:24:47;;;;;;;21.30;14.25;;;;;;;;;;10441290;28;20052;-85
2023/09/14 04:29:48;;;;;;;17.38;12.45;;;;;;;;;;10443692;28;20037;-83
2023/09/14 04:34:49;;;;;;;19.30;12.02;;;;;;;;;;10443010;28;20036;-82
2023/09/14 04:39:50;;;;;;;23.17;16.30;;;;;;;;;;10441408;28;20043;-82
2023/09/14 04:44:53;;;;;;;24.00;13.95;;;;;;;;;;10440450;28;20025;-82
2023/09/14 04:49:54;;;;;;;24.80;15.65;;;;;;;;;;10442782;28;20027;-81
2023/09/14 04:54:55;;;;;;;22.60;14.23;;;;;;;;;;10443742;28;20477;-83
2023/09/14 04:59:56;;;;;;;28.42;16.80;;;;;;;;;;10443583;28;20036;-81
2023/09/14 05:04:57;;;;;;;19.67;11.88;;;;;;;;;;10441611;28;20128;-82
2023/09/14 05:09:58;;;;;;;17.30;11.50;;;;;;;;;;10444038;28;20112;-81
2023/09/14 05:14:59;;;;;;;20.52;12.95;;;;;;;;;;10441525;28;20094;-83
2023/09/14 05:20:00;;;;;;;21.30;13.07;;;;;;;;;;10433520;28;20048;-81
2023/09/14 05:25:03;;;;;;;19.88;12.10;;;;;;;;;;10442983;28;20136;-82
2023/09/14 05:30:04;;;;;;;17.25;10.38;;;;;;;;;;10440926;28;20112;-80
2023/09/14 05:35:06;;;;;;;17.60;11.73;;;;;;;;;;10441646;28;20047;-83
2023/09/14 05:40:12;;;;;;;19.50;12.43;;;;;;;;;;10441218;28;20084;-80
2023/09/14 05:45:13;;;;;;;16.20;11.20;;;;;;;;;;10445857;28;20043;-81
2023/09/14 05:50:14;;;;;;;18.98;11.38;;;;;;;;;;10449230;28;20036;-81
2023/09/14 05:55:15;;;;;;;14.98;10.70;;;;;;;;;;10450719;28;20477;-82
2023/09/14 06:00:16;;;;;;;21.23;10.50;;;;;;;;;;10447349;28;20500;-80
2023/09/14 06:05:17;;;;;;;13.20;9.48;;;;;;;;;;10447867;28;20043;-80
2023/09/14 06:10:18;;;;;;;15.05;9.20;;;;;;;;;;10442964;28;20034;-81
2023/09/14 06:15:19;;;;;;;14.32;9.27;;;;;;;;;;10444443;28;20048;-81
2023/09/14 06:20:20;;;;;;;13.65;9.25;;;;;;;;;;10447846;28;20101;-80
2023/09/14 06:25:21;;;;;;;13.15;8.05;;;;;;;;;;10447347;28;20048;-80
2023/09/14 06:30:22;;;;;;;12.27;8.32;;;;;;;;;;10449380;28;20029;-81
2023/09/14 06:35:23;;;;;;;14.20;8.80;;;;;;;;;;10449212;28;20025;-79
2023/09/14 06:40:26;;;;;;;12.75;8.68;;;;;;;;;;10448631;28;20557;-81
2023/09/14 06:45:27;;;;;;;15.50;8.50;;;;;;;;;;10449064;28;20017;-80
2023/09/14 06:50:28;;;;;;;12.90;8.20;;;;;;;;;;10448835;28;20467;-81
2023/09/14 06:55:29;;;;;;;15.82;9.32;;;;;;;;;;10448583;28;20040;-80
2023/09/14 07:00:30;;;;;;;13.55;9.30;;;;;;;;;;10448296;28;20055;-84
2023/09/14 07:05:34;;;;;;;13.27;8.57;;;;;;;;;;10448235;28;20060;-81
2023/09/14 07:10:36;;;;;;;11.95;8.70;;;;;;;;;;10448122;28;20055;-81
2023/09/14 07:15:37;;;;;;;12.75;8.63;;;;;;;;;;10447300;28;20040;-81
2023/09/14 07:20:38;;;;;;;20.10;9.30;;;;;;;;;;10447170;28;20470;-81
2023/09/14 07:25:39;;;;;;;13.25;8.35;;;;;;;;;;10447226;28;20114;-80
2023/09/14 07:30:40;;;;;;;13.75;9.23;;;;;;;;;;10446757;28;20025;-81
2023/09/14 07:35:41;;;;;;;11.50;7.60;;;;;;;;;;10447049;28;20495;-81
2023/09/14 07:40:42;;;;;;;12.32;8.50;;;;;;;;;;10446177;28;20622;-81
2023/09/14 07:45:43;;;;;;;10.82;7.60;;;;;;;;;;10446348;28;20721;-80
2023/09/14 07:50:44;;;;;;;8.57;7.03;;;;;;;;;;10446220;28;20025;-83
2023/09/14 07:55:52;;;;;;;10.48;8.13;;;;;;;;;;10446483;28;20009;-81
2023/09/14 08:00:53;;;;;;;10.43;7.80;;;;;;;;;;10446266;28;20387;-81
2023/09/14 08:05:54;;;;;;;13.20;7.97;;;;;;;;;;10444985;28;20039;-82
2023/09/14 08:10:55;;;;;;;7.82;6.28;;;;;;;;;;10445584;28;20036;-82
2023/09/14 08:15:56;;;;;;;8.60;6.18;;;;;;;;;;10445001;28;20025;-81
2023/09/14 08:20:58;;;;;;;10.35;7.35;;;;;;;;;;10445232;28;20567;-82
2023/09/14 08:25:59;;;;;;;10.65;7.45;;;;;;;;;;10445208;28;20047;-81
2023/09/14 08:31:00;;;;;;;7.32;6.47;;;;;;;;;;10444634;28;20037;-82
2023/09/14 08:36:01;;;;;;;10.13;6.68;;;;;;;;;;10444466;28;20053;-83
2023/09/14 08:41:05;;;;;;;9.20;6.15;;;;;;;;;;10444279;28;20409;-82
2023/09/14 08:46:07;;;;;;;7.30;5.93;;;;;;;;;;10444248;28;20024;-81
2023/09/14 08:51:09;;;;;;;8.00;5.85;;;;;;;;;;10444661;28;20021;-83
2023/09/14 08:56:13;;;;;;;7.82;6.28;;;;;;;;;;10443796;28;20017;-82
2023/09/14 09:01:17;;;;;;;8.18;6.00;;;;;;;;;;10443888;28;20087;-82
2023/09/14 09:06:19;;;;;;;7.72;5.22;;;;;;;;;;10443456;28;20025;-81
2023/09/14 09:11:20;;;;;;;6.68;5.30;;;;;;;;;;10443978;28;20037;-82
2023/09/14 09:16:21;;;;;;;5.75;4.50;;;;;;;;;;10443636;28;20048;-81
2023/09/14 09:21:29;;;;;;;5.95;4.70;;;;;;;;;;10451423;28;20571;-81
2023/09/14 09:26:37;;;;;;;6.93;5.18;;;;;;;;;;10452504;28;20835;-81
2023/09/14 09:31:41;;;;;;;4.95;3.85;;;;;;;;;;10451864;28;20033;-81
2023/09/14 09:36:43;;;;;;;4.85;3.88;;;;;;;;;;10451682;28;20024;-80
2023/09/14 09:41:45;;;;;;;5.20;3.55;;;;;;;;;;10451304;28;20021;-83
2023/09/14 09:46:46;;;;;;;3.55;3.25;;;;;;;;;;10451386;28;20080;-82
2023/09/14 09:51:51;;;;;;;4.30;3.50;;;;;;;;;;10450924;28;20554;-81
2023/09/14 09:56:52;;;;;;;5.70;4.37;;;;;;;;;;10450820;28;20029;-82
2023/09/14 10:01:53;;;;;;;5.93;4.50;;;;;;;;;;10451050;28;20481;-82
2023/09/14 10:06:55;;;;;;;5.63;4.38;;;;;;;;;;10450733;28;20021;-82
2023/09/14 10:12:00;;;;;;;4.53;4.07;;;;;;;;;;10450634;28;20079;-82
2023/09/14 10:17:04;;;;;;;6.38;3.90;;;;;;;;;;10447636;28;20063;-82
2023/09/14 10:22:05;;;;;;;4.95;3.63;;;;;;;;;;10448948;28;20424;-83
2023/09/14 10:27:08;;;;;;;5.10;3.90;;;;;;;;;;10448010;28;20049;-82
2023/09/14 10:32:10;;;;;;;4.63;3.58;;;;;;;;;;10449369;28;20017;-82
2023/09/14 10:37:11;;;;;;;9.27;4.57;;;;;;;;;;10449345;28;20029;-81
2023/09/14 10:42:12;;;;;;;4.90;3.92;;;;;;;;;;10447908;28;20369;-81
2023/09/14 10:47:15;;;;;;;4.63;3.88;;;;;;;;;;10449095;28;20028;-81
2023/09/14 10:52:27;;;;;;;5.75;4.10;;;;;;;;;;10447915;28;20098;-81
2023/09/14 10:57:29;;;;;;;4.25;3.70;;;;;;;;;;10447178;28;20072;-81
2023/09/14 11:02:39;;;;;;;4.35;2.95;;;;;;;;;;10447603;28;20036;-81
2023/09/14 11:07:41;;;;;;;4.68;3.45;;;;;;;;;;10447925;28;20071;-82
2023/09/14 11:12:43;;;;;;;4.50;3.30;;;;;;;;;;10446224;28;20040;-80
2023/09/14 11:17:44;;;;;;;4.00;3.60;;;;;;;;;;10446160;28;20087;-80
2023/09/14 11:22:45;;;;;;;5.70;3.35;;;;;;;;;;10447108;28;20080;-82
2023/09/14 11:27:47;;;;;;;5.90;3.40;;;;;;;;;;10447959;28;20025;-81
2023/09/14 11:32:48;;;;;;;5.03;3.78;;;;;;;;;;10447674;28;20040;-82
2023/09/14 11:37:49;;;;;;;5.72;3.67;;;;;;;;;;10444910;28;20115;-81
2023/09/14 11:43:21;;;;;;;4.18;3.40;;;;;;;;;;10445591;28;20045;-81
2023/09/14 11:48:23;;;;;;;6.38;3.03;;;;;;;;;;10434306;28;20060;-83
2023/09/14 11:53:24;;;;;;;4.38;3.22;;;;;;;;;;10439016;28;20041;-82
2023/09/14 11:58:25;;;;;;;4.13;3.17;;;;;;;;;;10441178;28;20095;-81
2023/09/14 12:03:27;;;;;;;4.30;3.60;;;;;;;;;;10446272;28;20064;-81
2023/09/14 12:08:28;;;;;;;5.35;4.35;;;;;;;;;;10447253;28;20037;-81
2023/09/14 12:13:29;;;;;;;7.47;5.75;;;;;;;;;;10444556;28;20033;-81
2023/09/14 12:18:43;;;;;;;6.35;5.70;;;;;;;;;;10445467;28;20045;-81
2023/09/14 12:23:46;;;;;;;6.68;5.78;;;;;;;;;;10439345;28;20515;-82
2023/09/14 12:28:53;;;;;;;7.15;5.40;;;;;;;;;;10444871;28;20639;-83
2023/09/14 12:33:55;;;;;;;6.43;5.68;;;;;;;;;;10443866;28;20048;-82
2023/09/14 12:38:57;;;;;;;6.50;5.65;;;;;;;;;;10443657;28;20052;-82
2023/09/14 12:44:00;;;;;;;7.15;6.00;;;;;;;;;;10442561;28;20035;-84
2023/09/14 12:49:01;;;;;;;7.05;5.68;;;;;;;;;;10443286;28;20106;-82
2023/09/14 12:54:03;;;;;;;7.35;5.60;;;;;;;;;;10425079;28;20040;-82
2023/09/14 12:59:04;;;;;;;7.55;6.10;;;;;;;;;;10438158;28;20133;-82
2023/09/14 13:04:05;;;;;;;7.68;5.88;;;;;;;;;;10443291;28;20029;-84
2023/09/14 13:09:08;;;;;;;6.18;5.40;;;;;;;;;;10442110;28;20025;-82
2023/09/14 13:14:21;;;;;;;6.90;6.15;;;;;;;;;;10441588;28;20017;-82
2023/09/14 13:19:25;;;;;;;7.72;5.63;;;;;;;;;;10442138;28;20472;-84
2023/09/14 13:24:26;;;;;;;5.50;4.78;;;;;;;;;;10425276;28;20049;-82
2023/09/14 13:29:27;;;;;;;5.97;4.65;;;;;;;;;;10441545;28;20033;-82
2023/09/14 13:34:29;;;;;;;4.95;3.78;;;;;;;;;;10441185;28;20488;-83
2023/09/14 13:39:31;;;;;;;8.05;4.50;;;;;;;;;;10441991;28;20070;-82
2023/09/14 13:44:32;;;;;;;5.20;3.40;;;;;;;;;;10441839;28;20059;-83
2023/09/14 13:49:33;;;;;;;4.82;2.90;;;;;;;;;;10440775;28;20038;-81
2023/09/14 13:54:34;;;;;;;4.28;2.92;;;;;;;;;;10436494;28;20555;-81
2023/09/14 13:59:35;;;;;;;4.47;2.58;;;;;;;;;;10440658;28;20045;-81
2023/09/14 14:04:36;;;;;;;2.85;2.33;;;;;;;;;;10438453;28;20025;-80
2023/09/14 14:09:37;;;;;;;3.72;2.42;;;;;;;;;;10450207;28;20039;-82
2023/09/14 14:14:38;;;;;;;4.57;2.10;;;;;;;;;;10448096;28;20442;-82
2023/09/14 14:19:39;;;;;;;2.92;2.10;;;;;;;;;;10448859;28;20047;-80
2023/09/14 14:24:40;;;;;;;2.65;1.90;;;;;;;;;;10435726;28;20558;-85
2023/09/14 14:29:41;;;;;;;3.40;2.55;;;;;;;;;;10449215;28;20083;-83
2023/09/14 14:34:42;;;;;;;2.95;2.28;;;;;;;;;;10449541;28;20395;-83
2023/09/14 14:39:43;;;;;;;4.65;2.50;;;;;;;;;;10447821;28;20056;-86
2023/09/14 14:44:45;;;;;;;3.53;2.80;;;;;;;;;;10446567;28;20024;-86
2023/09/14 14:49:46;;;;;;;2.88;1.98;;;;;;;;;;10447792;28;20112;-84
2023/09/14 14:54:47;;;;;;;2.65;1.90;;;;;;;;;;10447634;28;20051;-84
2023/09/14 14:59:48;;;;;;;4.32;2.40;;;;;;;;;;10447686;28;20032;-81
2023/09/14 15:04:49;;;;;;;4.13;2.67;;;;;;;;;;10445661;28;20472;-80
2023/09/14 15:09:50;;;;;;;4.03;2.42;;;;;;;;;;10446476;28;20035;-79
2023/09/14 15:14:51;;;;;;;5.15;2.75;;;;;;;;;;10444608;28;20041;-79
2023/09/14 15:19:52;;;;;;;4.10;2.22;;;;;;;;;;10446358;28;20025;-84
2023/09/14 15:24:53;;;;;;;6.90;2.72;;;;;;;;;;10445038;28;20064;-84
2023/09/14 15:29:54;;;;;;;6.35;2.42;;;;;;;;;;10445366;28;20037;-85
2023/09/14 15:34:55;;;;;;;5.18;2.40;;;;;;;;;;10448388;28;20045;-88
2023/09/14 15:39:56;;;;;;;4.13;2.05;;;;;;;;;;10447732;28;20713;-82
2023/09/14 15:44:58;;;;;;;3.67;2.35;;;;;;;;;;10443180;28;20115;-84
2023/09/14 15:49:59;;;;;;;3.97;2.22;;;;;;;;;;10446828;28;20035;-84
2023/09/14 15:55:00;;;;;;;3.13;1.83;;;;;;;;;;10445239;28;20049;-84
2023/09/14 16:00:01;;;;;;;4.03;1.73;;;;;;;;;;10445703;28;20045;-83
2023/09/14 16:05:03;;;;;;;3.33;2.00;;;;;;;;;;10444232;28;20071;-84
2023/09/14 16:10:04;;;;;;;4.25;1.92;;;;;;;;;;10445322;28;20025;-86
2023/09/14 16:15:06;;;;;;;2.67;2.20;;;;;;;;;;10443684;28;20033;-83
2023/09/14 16:20:08;;;;;;;2.63;1.70;;;;;;;;;;10443235;28;20439;-84
2023/09/14 16:25:11;;;;;;;2.55;1.80;;;;;;;;;;10442221;28;20052;-85
2023/09/14 16:30:15;;;;;;;3.63;2.50;;;;;;;;;;10444349;28;20048;-83
2023/09/14 16:35:16;;;;;;;5.95;2.67;;;;;;;;;;10434366;28;20316;-84
2023/09/14 16:40:18;;;;;;;4.90;2.97;;;;;;;;;;10442466;28;20039;-85
2023/09/14 16:45:19;;;;;;;4.35;2.30;;;;;;;;;;10438869;28;20029;-86
2023/09/14 16:50:20;;;;;;;4.68;3.22;;;;;;;;;;10443434;28;20063;-86
2023/09/14 16:55:21;;;;;;;4.55;2.45;;;;;;;;;;10444138;28;20474;-88
2023/09/14 17:00:22;;;;;;;5.80;3.47;;;;;;;;;;10442346;28;20041;-84
2023/09/14 17:05:24;;;;;;;5.38;2.67;;;;;;;;;;10441494;28;20585;-85
2023/09/14 17:10:25;;;;;;;5.22;3.58;;;;;;;;;;10443404;28;20108;-84
2023/09/14 17:15:27;;;;;;;5.38;3.13;;;;;;;;;;10437032;28;20036;-83
2023/09/14 17:20:28;;;;;;;6.05;4.07;;;;;;;;;;10440292;28;20049;-84
2023/09/14 17:25:29;;;;;;;5.32;3.97;;;;;;;;;;10440742;28;20052;-83
2023/09/14 17:30:31;;;;;;;4.72;4.03;;;;;;;;;;10442147;28;20106;-84
2023/09/14 17:35:32;;;;;;;4.22;3.17;;;;;;;;;;10441559;28;20120;-87
2023/09/14 17:40:33;;;;;;;6.30;3.70;;;;;;;;;;10445818;28;20036;-84
2023/09/14 17:45:34;;;;;;;5.20;3.60;;;;;;;;;;10446606;28;20487;-85
2023/09/14 17:50:35;;;;;;;5.55;3.22;;;;;;;;;;10443127;28;20048;-85
2023/09/14 17:55:36;;;;;;;6.65;3.95;;;;;;;;;;10425757;28;20025;-82
2023/09/14 18:00:37;;;;;;;8.80;4.70;;;;;;;;;;10448769;28;20033;-82
2023/09/14 18:05:45;;;;;;;7.07;3.80;;;;;;;;;;10449008;28;20029;-83
2023/09/14 18:10:46;;;;;;;6.43;4.68;;;;;;;;;;10449326;28;20039;-83
2023/09/14 18:15:47;;;;;;;7.03;4.70;;;;;;;;;;10448357;28;20024;-83
2023/09/14 18:20:50;;;;;;;5.88;3.65;;;;;;;;;;10450735;28;20047;-85
2023/09/14 18:25:52;;;;;;;6.38;4.90;;;;;;;;;;10442793;28;20044;-88
2023/09/14 18:30:54;;;;;;;7.43;3.70;;;;;;;;;;10441734;28;20033;-87
2023/09/14 18:35:56;;;;;;;8.82;4.38;;;;;;;;;;10447435;28;20039;-84
2023/09/14 18:40:57;;;;;;;5.18;3.22;;;;;;;;;;10446910;28;20029;-86
2023/09/14 18:45:58;;;;;;;8.95;4.32;;;;;;;;;;10447086;28;20063;-84
2023/09/14 18:51:03;;;;;;;8.68;4.72;;;;;;;;;;10448071;28;20629;-86
2023/09/14 18:56:07;;;;;;;5.10;3.60;;;;;;;;;;10437572;28;20723;-84
2023/09/14 19:01:08;;;;;;;9.25;5.35;;;;;;;;;;10447301;28;20041;-82
2023/09/14 19:06:09;;;;;;;6.30;5.43;;;;;;;;;;10447385;28;20025;-80
2023/09/14 19:11:10;;;;;;;6.68;5.80;;;;;;;;;;10444077;28;20032;-84
2023/09/14 19:16:11;;;;;;;7.75;5.47;;;;;;;;;;10440357;28;20387;-82
2023/09/14 19:21:12;;;;;;;9.30;6.15;;;;;;;;;;10447496;28;20039;-82
2023/09/14 19:26:13;;;;;;;10.13;5.03;;;;;;;;;;10445916;28;20060;-83
2023/09/14 19:31:14;;;;;;;7.43;5.25;;;;;;;;;;10445623;28;20067;-84
2023/09/14 19:36:16;;;;;;;7.57;5.55;;;;;;;;;;10446449;28;20551;-83
2023/09/14 19:41:17;;;;;;;9.10;5.45;;;;;;;;;;10446285;28;20115;-84
2023/09/14 19:46:18;;;;;;;13.63;6.18;;;;;;;;;;10445076;28;20028;-83
2023/09/14 19:51:20;;;;;;;10.55;6.28;;;;;;;;;;10445224;28;20091;-83
2023/09/14 19:56:21;;;;;;;10.60;6.13;;;;;;;;;;10443843;28;20028;-83
2023/09/14 20:01:23;;;;;;;13.52;6.32;;;;;;;;;;10443289;28;20045;-83
2023/09/14 20:06:25;;;;;;;9.13;5.90;;;;;;;;;;10444422;28;20683;-83
2023/09/14 20:11:26;;;;;;;9.80;6.50;;;;;;;;;;10443019;28;20044;-84
2023/09/14 20:16:27;;;;;;;8.98;5.60;;;;;;;;;;10443816;28;20116;-85
2023/09/14 20:21:29;;;;;;;9.45;6.05;;;;;;;;;;10442191;28;20049;-83
2023/09/14 20:26:33;;;;;;;8.05;6.10;;;;;;;;;;10443045;28;20684;-83
2023/09/14 20:31:34;;;;;;;8.68;6.45;;;;;;;;;;10443963;28;20080;-84
2023/09/14 20:36:35;;;;;;;9.60;6.97;;;;;;;;;;10444330;28;20041;-82
2023/09/14 20:41:37;;;;;;;9.02;6.68;;;;;;;;;;10441498;28;20025;-86
2023/09/14 20:46:38;;;;;;;14.60;7.65;;;;;;;;;;10443926;28;20025;-82
2023/09/14 20:51:39;;;;;;;11.93;6.97;;;;;;;;;;10443655;28;20033;-84
2023/09/14 20:56:41;;;;;;;11.52;6.75;;;;;;;;;;10440782;28;20668;-83
2023/09/14 21:01:42;;;;;;;10.68;6.80;;;;;;;;;;10442517;28;20037;-82
2023/09/14 21:06:43;;;;;;;10.00;6.57;;;;;;;;;;10442204;28;20086;-82
2023/09/14 21:11:44;;;;;;;11.90;7.53;;;;;;;;;;10442815;28;20033;-82
2023/09/14 21:16:45;;;;;;;11.27;6.70;;;;;;;;;;10441453;28;20118;-84
2023/09/14 21:21:58;;;;;;;11.57;7.18;;;;;;;;;;10440874;28;20119;-84
2023/09/14 21:26:59;;;;;;;9.00;6.80;;;;;;;;;;10439315;28;20052;-84
2023/09/14 21:32:00;;;;;;;9.90;5.13;;;;;;;;;;10441505;28;20117;-84
2023/09/14 21:37:01;;;;;;;9.07;6.97;;;;;;;;;;10441860;28;20032;-84
2023/09/14 21:42:02;;;;;;;12.60;6.38;;;;;;;;;;10441014;28;20041;-82
2023/09/14 21:47:03;;;;;;;10.38;6.43;;;;;;;;;;10441900;28;20029;-82
2023/09/14 21:52:06;;;;;;;9.77;6.05;;;;;;;;;;10442089;28;20044;-82
2023/09/14 21:57:07;;;;;;;11.32;6.78;;;;;;;;;;10441217;28;20134;-83
2023/09/14 22:02:08;;;;;;;10.20;7.32;;;;;;;;;;10441096;28;20145;-84
2023/09/14 22:07:09;;;;;;;11.88;7.22;;;;;;;;;;10441157;28;20036;-82
2023/09/14 22:12:10;;;;;;;9.07;5.95;;;;;;;;;;10429536;28;20473;-83
2023/09/14 22:17:12;;;;;;;12.82;6.07;;;;;;;;;;10440731;28;20033;-82
2023/09/14 22:22:13;;;;;;;7.82;5.45;;;;;;;;;;10440956;28;20667;-82
2023/09/14 22:27:14;;;;;;;8.60;5.78;;;;;;;;;;10444701;28;20056;-82
2023/09/14 22:32:15;;;;;;;9.35;6.40;;;;;;;;;;10448139;28;20033;-83
2023/09/14 22:37:17;;;;;;;10.00;5.03;;;;;;;;;;10448028;28;20028;-85
2023/09/14 22:42:19;;;;;;;10.77;6.88;;;;;;;;;;10448427;28;20033;-83
2023/09/14 22:47:20;;;;;;;11.43;6.05;;;;;;;;;;10447780;28;20047;-84
2023/09/14 22:52:21;;;;;;;7.60;5.38;;;;;;;;;;10447610;28;20031;-82
2023/09/14 22:57:22;;;;;;;10.90;6.97;;;;;;;;;;10447000;28;20400;-82
2023/09/14 23:02:23;;;;;;;8.25;5.53;;;;;;;;;;10446739;28;20032;-82
2023/09/14 23:07:24;;;;;;;8.48;5.75;;;;;;;;;;10446091;28;20089;-82
2023/09/14 23:12:26;;;;;;;10.65;6.35;;;;;;;;;;10445483;28;20032;-83
2023/09/14 23:17:30;;;;;;;12.77;6.97;;;;;;;;;;10446803;28;20055;-84
2023/09/14 23:22:31;;;;;;;14.48;8.82;;;;;;;;;;10446247;28;20041;-82
2023/09/14 23:27:33;;;;;;;11.52;8.20;;;;;;;;;;10447329;28;20043;-82
2023/09/14 23:32:36;;;;;;;10.65;6.40;;;;;;;;;;10445582;28;20040;-84
2023/09/14 23:37:38;;;;;;;11.77;8.20;;;;;;;;;;10443525;28;20140;-85
2023/09/14 23:42:39;;;;;;;12.57;7.03;;;;;;;;;;10446331;28;20056;-82
2023/09/14 23:47:40;;;;;;;13.82;8.02;;;;;;;;;;10443367;28;20408;-85
2023/09/14 23:52:41;;;;;;;20.42;9.15;;;;;;;;;;10444319;28;20021;-83
2023/09/14 23:57:42;;;;;;;16.17;9.18;;;;;;;;;;10445840;28;20448;-85
